Time;durP1;ratioP1;P1;durP2;ratioP2;P2;SDS_P1;SDS_P2;PMS_P1;PMS_P2;Temp;Humidity;BMP_temperature;BMP_pressure;BME280_temperature;BME280_humidity;BME280_pressure;Samples;Min_cycle;Max_cycle;Signal;HPM_P1;HPM_P2
2022/11/15 00:01:30;;;;;;;0.50;0.50;;;;;;;9.46;100.00;100949.44;5072837;28;20203;-75
2022/11/15 00:03:57;;;;;;;0.60;0.60;;;;;;;9.51;100.00;100952.19;5087945;28;20582;-75
2022/11/15 00:06:24;;;;;;;0.73;0.73;;;;;;;9.02;100.00;100854.84;5071976;28;20206;-75
2022/11/15 00:08:52;;;;;;;0.70;0.70;;;;;;;9.70;100.00;100946.78;5089256;28;20250;-75
2022/11/15 00:11:19;;;;;;;0.80;0.80;;;;;;;9.52;100.00;100949.66;5073653;28;20627;-76
2022/11/15 00:13:45;;;;;;;0.70;0.70;;;;;;;9.48;100.00;100946.91;5052533;28;20190;-75
2022/11/15 00:16:12;;;;;;;0.60;0.60;;;;;;;9.33;100.00;100940.41;5077553;28;20210;-75
2022/11/15 00:18:39;;;;;;;0.57;0.57;;;;;;;9.26;100.00;100917.75;5076922;28;20198;-75
2022/11/15 00:21:08;;;;;;;2.17;1.97;;;;;;;9.21;100.00;100924.44;5091202;28;20650;-75
2022/11/15 00:23:35;;;;;;;0.70;0.70;;;;;;;9.41;100.00;100938.97;5087201;28;20194;-75
2022/11/15 00:26:03;;;;;;;0.50;0.50;;;;;;;9.42;100.00;100926.88;5089211;28;20202;-75
2022/11/15 00:28:30;;;;;;;0.60;0.60;;;;;;;9.51;100.00;100931.47;5070287;28;20190;-75
2022/11/15 00:31:02;;;;;;;0.70;0.70;;;;;;;9.45;100.00;100933.03;5088251;28;20205;-75
2022/11/15 00:33:29;;;;;;;0.60;0.60;;;;;;;9.41;100.00;100935.50;5055260;28;20309;-75
2022/11/15 00:36:01;;;;;;;0.60;0.60;;;;;;;9.10;100.00;100897.34;5075028;28;20233;-75
2022/11/15 00:38:31;;;;;;;0.60;0.60;;;;;;;9.33;100.00;100931.75;5071111;28;20229;-75
2022/11/15 00:40:58;;;;;;;0.60;0.60;;;;;;;9.27;100.00;100928.97;5071052;28;20225;-75
2022/11/15 00:43:26;;;;;;;1.53;1.43;;;;;;;9.17;100.00;100922.59;5080598;28;20241;-75
2022/11/15 00:45:53;;;;;;;0.80;0.80;;;;;;;9.10;100.00;100912.84;5045937;28;20206;-75
2022/11/15 00:48:20;;;;;;;0.80;0.80;;;;;;;8.71;100.00;100833.91;5089128;28;20203;-74
2022/11/15 00:50:47;;;;;;;0.70;0.70;;;;;;;9.19;100.00;100912.31;5072937;28;20209;-74
2022/11/15 00:53:14;;;;;;;0.50;0.50;;;;;;;9.18;100.00;100911.41;5070730;28;20195;-75
2022/11/15 00:55:41;;;;;;;0.60;0.60;;;;;;;9.28;100.00;100905.72;5080146;28;20219;-74
2022/11/15 00:58:08;;;;;;;0.67;0.67;;;;;;;9.23;100.00;100902.13;5090591;28;20588;-75
2022/11/15 01:00:36;;;;;;;0.63;0.63;;;;;;;9.31;100.00;100890.28;5089654;28;20187;-75
2022/11/15 01:03:03;;;;;;;0.50;0.50;;;;;;;9.12;100.00;100900.88;5081730;28;20690;-75
2022/11/15 01:05:30;;;;;;;0.80;0.80;;;;;;;9.16;100.00;100901.84;5071964;28;20218;-74
2022/11/15 01:07:57;;;;;;;0.70;0.70;;;;;;;9.19;100.00;100901.94;5070740;28;20207;-74
2022/11/15 01:10:25;;;;;;;0.63;0.63;;;;;;;9.12;100.00;100900.88;5089764;28;20217;-74
2022/11/15 01:12:52;;;;;;;0.60;0.60;;;;;;;9.08;100.00;100899.00;5055095;28;20602;-74
2022/11/15 01:15:19;;;;;;;0.60;0.60;;;;;;;9.13;100.00;100892.25;5080276;28;20229;-74
2022/11/15 01:17:47;;;;;;;0.67;0.67;;;;;;;9.04;100.00;100873.84;5084242;28;20198;-75
2022/11/15 01:20:14;;;;;;;0.60;0.60;;;;;;;9.13;100.00;100891.41;5070653;28;20686;-75
2022/11/15 01:22:41;;;;;;;0.80;0.80;;;;;;;9.15;100.00;100890.63;5070535;28;20230;-74
2022/11/15 01:25:07;;;;;;;1.40;1.13;;;;;;;9.14;100.00;100888.84;5074369;28;20210;-75
2022/11/15 01:27:34;;;;;;;1.50;1.40;;;;;;;9.25;100.00;100891.78;5090149;28;20190;-75
2022/11/15 01:30:01;;;;;;;0.70;0.70;;;;;;;9.15;100.00;100887.16;5072825;28;20226;-75
2022/11/15 01:32:28;;;;;;;0.80;0.80;;;;;;;9.08;100.00;100888.66;5090015;28;20259;-75
2022/11/15 01:34:56;;;;;;;0.60;0.60;;;;;;;9.09;100.00;100874.91;5088208;28;20218;-74
2022/11/15 01:37:22;;;;;;;0.60;0.60;;;;;;;9.24;100.00;100884.88;5087514;28;20202;-74
2022/11/15 01:39:49;;;;;;;0.70;0.70;;;;;;;9.28;100.00;100897.06;5070845;28;20202;-74
2022/11/15 01:42:16;;;;;;;1.17;1.13;;;;;;;9.25;100.00;100892.69;5074390;28;20210;-74
2022/11/15 01:44:46;;;;;;;0.70;0.70;;;;;;;9.29;100.00;100898.84;5075390;28;20199;-75
2022/11/15 01:47:16;;;;;;;0.70;0.70;;;;;;;9.36;100.00;100891.31;5075068;28;20199;-75
2022/11/15 01:49:53;;;;;;;0.80;0.80;;;;;;;9.44;100.00;100889.00;5076270;28;20264;-74
2022/11/15 01:52:25;;;;;;;0.60;0.60;;;;;;;9.49;100.00;100886.56;5094146;28;20216;-75
2022/11/15 01:54:55;;;;;;;0.80;0.80;;;;;;;9.40;100.00;100866.44;5085623;28;20660;-74
2022/11/15 01:57:22;;;;;;;0.80;0.80;;;;;;;9.49;100.00;100892.59;5077890;28;20210;-75
2022/11/15 01:59:49;;;;;;;0.60;0.60;;;;;;;9.46;100.00;100893.38;5076224;28;20647;-75
2022/11/15 02:02:16;;;;;;;0.60;0.60;;;;;;;9.22;100.00;100879.66;5056169;28;20195;-75
2022/11/15 02:04:45;;;;;;;0.80;0.80;;;;;;;9.29;100.00;100886.78;5074909;28;20206;-75
2022/11/15 02:07:15;;;;;;;1.70;1.27;;;;;;;9.13;100.00;100862.94;5073818;28;20203;-75
2022/11/15 02:09:44;;;;;;;0.67;0.67;;;;;;;9.19;100.00;100876.97;5073856;28;20784;-74
2022/11/15 02:12:14;;;;;;;1.13;1.03;;;;;;;9.24;100.00;100870.22;5079837;28;20197;-74
2022/11/15 02:14:45;;;;;;;0.60;0.60;;;;;;;9.17;100.00;100878.59;5082545;28;20227;-75
2022/11/15 02:17:26;;;;;;;0.60;0.60;;;;;;;9.17;100.00;100873.44;5073718;28;20198;-75
2022/11/15 02:20:29;;;;;;;0.80;0.80;;;;;;;9.09;100.00;100874.91;5070168;28;20677;-75
2022/11/15 02:23:15;;;;;;;0.60;0.60;;;;;;;9.20;100.00;100876.13;5030990;28;20207;-75
2022/11/15 02:25:55;;;;;;;0.70;0.70;;;;;;;9.25;100.00;100871.97;5012698;28;20223;-75
2022/11/15 02:28:49;;;;;;;0.43;0.43;;;;;;;9.20;100.00;100872.66;4970428;28;20943;-75
2022/11/15 02:31:27;;;;;;;0.60;0.60;;;;;;;8.99;100.00;100872.81;5013225;28;20221;-76
2022/11/15 02:34:00;;;;;;;0.80;0.80;;;;;;;9.02;100.00;100872.94;4995400;28;20236;-76
2022/11/15 02:36:37;;;;;;;1.53;1.47;;;;;;;9.11;100.00;100868.06;4962675;28;20225;-75
2022/11/15 02:39:11;;;;;;;1.10;1.10;;;;;;;8.84;100.00;100833.53;5011497;28;20267;-75
2022/11/15 02:41:48;;;;;;;0.70;0.70;;;;;;;8.96;100.00;100827.03;5011153;28;20687;-76
2022/11/15 02:44:20;;;;;;;0.70;0.70;;;;;;;9.06;100.00;100861.84;5010994;28;20665;-76
2022/11/15 02:49:38;;;;;;;0.70;0.70;;;;;;;9.17;100.00;100857.00;5021400;28;20255;-76
2022/11/15 02:52:05;;;;;;;0.73;0.73;;;;;;;9.08;100.00;100857.63;4960903;28;20197;-75
2022/11/15 02:54:34;;;;;;;0.60;0.60;;;;;;;9.09;100.00;100863.66;5012236;28;20201;-75
2022/11/15 02:57:03;;;;;;;0.60;0.60;;;;;;;9.19;100.00;100876.97;5030412;28;20258;-75
2022/11/15 02:59:53;;;;;;;0.60;0.60;;;;;;;9.20;100.00;100873.56;5019339;28;20186;-75
2022/11/15 03:02:34;;;;;;;0.70;0.70;;;;;;;9.18;100.00;100871.72;5030197;28;20200;-76
2022/11/15 03:05:10;;;;;;;0.60;0.60;;;;;;;9.25;100.00;100871.09;5004758;28;20201;-76
2022/11/15 03:07:44;;;;;;;0.80;0.80;;;;;;;9.23;100.00;100852.94;5015477;28;20708;-76
2022/11/15 03:10:18;;;;;;;0.70;0.70;;;;;;;9.40;100.00;100877.66;5021827;28;20208;-76
2022/11/15 03:12:52;;;;;;;0.90;0.90;;;;;;;9.34;100.00;100871.41;5010627;28;20227;-76
2022/11/15 03:15:22;;;;;;;0.70;0.70;;;;;;;9.15;100.00;100858.69;5010605;28;20570;-75
2022/11/15 03:17:58;;;;;;;0.70;0.70;;;;;;;9.40;100.00;100882.84;5010657;28;20208;-76
2022/11/15 03:20:27;;;;;;;0.70;0.70;;;;;;;9.42;100.00;100876.00;5010595;28;20205;-76
2022/11/15 03:22:56;;;;;;;0.70;0.70;;;;;;;9.29;100.00;100855.72;4961851;28;20220;-75
2022/11/15 03:25:27;;;;;;;1.20;1.20;;;;;;;9.38;100.00;100873.28;5010575;28;20205;-75
2022/11/15 03:27:56;;;;;;;0.90;0.90;;;;;;;9.37;100.00;100866.34;4990775;28;20698;-75
2022/11/15 03:30:23;;;;;;;0.93;0.93;;;;;;;9.07;100.00;100834.25;4991048;28;20202;-76
2022/11/15 03:32:56;;;;;;;0.60;0.60;;;;;;;9.25;100.00;100859.03;4990247;28;20233;-76
2022/11/15 03:35:25;;;;;;;0.70;0.70;;;;;;;9.09;100.00;100836.09;4977401;28;20248;-76
2022/11/15 03:37:55;;;;;;;0.70;0.70;;;;;;;9.17;100.00;100847.56;5010841;28;20259;-76
2022/11/15 03:40:28;;;;;;;0.87;0.87;;;;;;;9.13;100.00;100831.91;5063911;28;20199;-75
2022/11/15 03:43:02;;;;;;;0.70;0.70;;;;;;;9.26;100.00;100853.03;5088151;28;20202;-76
2022/11/15 03:45:34;;;;;;;0.60;0.60;;;;;;;9.32;100.00;100837.72;5072457;28;20201;-76
2022/11/15 03:48:09;;;;;;;0.50;0.50;;;;;;;9.25;100.00;100819.34;5070734;28;20202;-75
2022/11/15 03:50:36;;;;;;;0.70;0.70;;;;;;;9.42;100.00;100842.34;5072427;28;20190;-75
2022/11/15 03:53:03;;;;;;;0.70;0.70;;;;;;;9.41;100.00;100838.00;5090247;28;20198;-75
2022/11/15 03:55:32;;;;;;;0.60;0.60;;;;;;;9.41;100.00;100839.72;5082375;28;20222;-77
2022/11/15 03:58:01;;;;;;;1.10;1.10;;;;;;;9.19;100.00;100796.75;5071751;28;20203;-76
2022/11/15 04:00:29;;;;;;;0.70;0.70;;;;;;;9.63;100.00;100824.00;5074790;28;20841;-82
2022/11/15 04:02:56;;;;;;;0.50;0.50;;;;;;;10.18;100.00;100792.84;5068236;28;20461;-79
2022/11/15 04:05:24;;;;;;;1.63;1.33;;;;;;;10.35;100.00;100794.19;5054064;28;20658;-76
2022/11/15 04:07:51;;;;;;;0.80;0.80;;;;;;;9.93;100.00;100824.94;5075255;28;20207;-76
2022/11/15 04:10:18;;;;;;;0.70;0.70;;;;;;;9.84;100.00;100827.25;5091800;28;20205;-76
2022/11/15 04:12:47;;;;;;;0.60;0.60;;;;;;;9.84;100.00;100824.69;5042391;28;20206;-77
2022/11/15 04:15:18;;;;;;;0.50;0.50;;;;;;;9.94;100.00;100805.09;5089436;28;20488;-75
2022/11/15 04:17:46;;;;;;;0.70;0.70;;;;;;;9.71;100.00;100819.94;5092011;28;20197;-76
2022/11/15 04:25:51;;;;;;;0.50;0.50;;;;;;;9.53;100.00;100834.03;5068838;28;20237;-76
2022/11/15 04:28:18;;;;;;;1.73;1.63;;;;;;;9.40;100.00;100831.06;5070347;28;20218;-75
2022/11/15 04:30:45;;;;;;;0.50;0.50;;;;;;;9.53;100.00;100821.09;5081576;28;20443;-75
2022/11/15 04:33:12;;;;;;;0.50;0.50;;;;;;;9.52;100.00;100834.88;5080810;28;20249;-77
2022/11/15 04:35:39;;;;;;;0.70;0.70;;;;;;;9.36;100.00;100816.28;5039268;28;20226;-77
2022/11/15 04:38:08;;;;;;;0.70;0.70;;;;;;;9.50;100.00;100837.41;5072256;28;20198;-77
2022/11/15 04:40:35;;;;;;;0.60;0.60;;;;;;;9.26;100.00;100814.22;5069297;28;20286;-76
2022/11/15 04:43:02;;;;;;;0.77;0.77;;;;;;;9.33;100.00;100836.00;5065978;28;22078;-77
2022/11/15 04:45:28;;;;;;;0.80;0.80;;;;;;;9.18;100.00;100813.09;5069538;28;20210;-77
2022/11/15 04:47:55;;;;;;;0.60;0.60;;;;;;;9.10;100.00;100804.19;5067740;28;20209;-77
2022/11/15 04:50:22;;;;;;;0.90;0.90;;;;;;;9.12;100.00;100807.75;5060670;28;20662;-77
2022/11/15 04:52:53;;;;;;;0.80;0.80;;;;;;;9.16;100.00;100819.94;5081235;28;20217;-76
2022/11/15 04:55:21;;;;;;;0.80;0.80;;;;;;;9.09;100.00;100828.34;5079966;28;20226;-77
2022/11/15 04:57:48;;;;;;;0.70;0.70;;;;;;;9.12;100.00;100825.84;5075527;28;20201;-77
2022/11/15 05:00:17;;;;;;;0.60;0.60;;;;;;;8.95;100.00;100807.16;5091049;28;20619;-78
2022/11/15 05:05:28;;;;;;;0.97;0.97;;;;;;;9.09;100.00;100828.34;5088308;28;20211;-77
2022/11/15 05:07:55;;;;;;;0.73;0.73;;;;;;;9.12;100.00;100831.03;5078988;28;20696;-76
2022/11/15 05:10:23;;;;;;;0.70;0.70;;;;;;;9.15;100.00;100815.59;5079587;28;20194;-77
2022/11/15 05:12:50;;;;;;;0.80;0.80;;;;;;;9.12;100.00;100822.38;5082721;28;20202;-76
2022/11/15 05:15:17;;;;;;;0.50;0.50;;;;;;;9.08;100.00;100825.69;5087588;28;20296;-77
2022/11/15 05:17:44;;;;;;;0.60;0.60;;;;;;;9.10;100.00;100824.91;5075145;28;20211;-75
2022/11/15 05:20:12;;;;;;;0.80;0.80;;;;;;;9.03;100.00;100815.19;5075197;28;20207;-75
2022/11/15 05:22:39;;;;;;;0.70;0.70;;;;;;;9.09;100.00;100818.00;5072602;28;20187;-76
2022/11/15 05:25:07;;;;;;;6.80;1.33;;;;;;;9.03;100.00;100820.34;5034523;28;20191;-78
2022/11/15 05:27:35;;;;;;;1.30;1.30;;;;;;;9.19;100.00;100814.88;5079369;28;20548;-79
2022/11/15 05:30:02;;;;;;;0.70;0.70;;;;;;;9.16;100.00;100824.25;5075079;28;20206;-78
2022/11/15 05:32:29;;;;;;;0.80;0.80;;;;;;;9.20;100.00;100819.22;5075680;28;20239;-78
2022/11/15 05:34:56;;;;;;;0.53;0.53;;;;;;;9.31;100.00;100817.81;5075650;28;20198;-77
2022/11/15 05:37:23;;;;;;;1.73;1.63;;;;;;;9.33;100.00;100823.94;5074152;28;20226;-78
2022/11/15 05:39:50;;;;;;;0.60;0.60;;;;;;;9.35;100.00;100821.38;5073878;28;20199;-80
2022/11/15 05:42:17;;;;;;;0.60;0.60;;;;;;;9.11;100.00;100794.75;5076042;28;20203;-79
2022/11/15 05:44:49;;;;;;;0.73;0.73;;;;;;;9.24;100.00;100826.22;5078431;28;20207;-76
2022/11/15 05:47:19;;;;;;;0.70;0.70;;;;;;;9.20;100.00;100795.94;5078378;28;20645;-77
2022/11/15 05:49:47;;;;;;;0.80;0.80;;;;;;;9.25;100.00;100835.75;5075341;28;20686;-77
2022/11/15 05:52:20;;;;;;;0.60;0.60;;;;;;;9.41;100.00;100832.84;5077604;28;20218;-76
2022/11/15 05:54:47;;;;;;;0.73;0.73;;;;;;;9.42;100.00;100833.69;5063386;28;20225;-77
2022/11/15 05:57:14;;;;;;;0.60;0.60;;;;;;;9.53;100.00;100837.50;5075146;28;20235;-78
2022/11/15 05:59:43;;;;;;;0.60;0.60;;;;;;;9.43;100.00;100810.47;5031757;28;20590;-77
2022/11/15 06:02:11;;;;;;;0.60;0.60;;;;;;;9.76;100.00;100845.97;5075777;28;20263;-78
2022/11/15 06:04:38;;;;;;;0.60;0.60;;;;;;;9.82;100.00;100844.44;5074063;28;20191;-74
2022/11/15 06:07:05;;;;;;;0.70;0.70;;;;;;;9.88;100.00;100847.22;5080771;28;20200;-74
2022/11/15 06:09:32;;;;;;;0.90;0.90;;;;;;;9.84;100.00;100832.44;5080124;28;20209;-75
2022/11/15 06:11:59;;;;;;;0.70;0.70;;;;;;;9.88;100.00;100851.53;5082197;28;20199;-75
2022/11/15 06:14:25;;;;;;;1.53;1.43;;;;;;;9.50;100.00;100805.47;5056787;28;20693;-75
2022/11/15 06:16:52;;;;;;;0.70;0.70;;;;;;;9.50;100.00;100814.09;5086567;28;20599;-77
2022/11/15 06:19:20;;;;;;;0.60;0.60;;;;;;;9.63;100.00;100849.03;5058518;28;20198;-75
2022/11/15 06:21:47;;;;;;;0.70;0.70;;;;;;;9.43;100.00;100846.69;5074030;28;20210;-76
2022/11/15 06:24:14;;;;;;;0.70;0.70;;;;;;;9.34;100.00;100838.66;5073431;28;20269;-74
2022/11/15 06:26:41;;;;;;;0.60;0.60;;;;;;;9.42;100.00;100839.75;5077153;28;20206;-72
2022/11/15 06:29:07;;;;;;;0.70;0.70;;;;;;;9.36;100.00;100844.75;5088740;28;20202;-73
2022/11/15 06:31:35;;;;;;;0.50;0.50;;;;;;;9.30;100.00;100831.63;5040703;28;20199;-73
2022/11/15 06:34:02;;;;;;;0.80;0.80;;;;;;;9.32;100.00;100827.34;5088321;28;20469;-70
2022/11/15 06:36:30;;;;;;;0.70;0.70;;;;;;;9.59;100.00;100853.25;5063872;28;20647;-73
2022/11/15 06:38:57;;;;;;;0.60;0.60;;;;;;;9.62;100.00;100853.34;5072871;28;20209;-73
2022/11/15 06:41:24;;;;;;;0.87;0.87;;;;;;;9.29;100.00;100816.91;5072538;28;20198;-74
2022/11/15 06:43:51;;;;;;;1.83;1.73;;;;;;;9.58;100.00;100845.41;5061864;28;20200;-73
2022/11/15 06:46:18;;;;;;;1.00;1.00;;;;;;;9.53;100.00;100823.66;5069577;28;20203;-73
2022/11/15 06:48:44;;;;;;;0.80;0.80;;;;;;;9.60;100.00;100833.38;5072612;28;20198;-73
2022/11/15 07:05:54;;;;;;;0.77;0.77;;;;;;;9.98;100.00;100832.84;5074596;27;20577;-72
2022/11/15 07:08:21;;;;;;;0.70;0.70;;;;;;;10.12;100.00;100853.97;5076708;28;20210;-72
2022/11/15 07:10:47;;;;;;;0.60;0.60;;;;;;;9.62;100.00;100759.25;5072209;28;20577;-72
2022/11/15 07:13:14;;;;;;;0.70;0.70;;;;;;;10.22;100.00;100837.88;5088557;28;20194;-72
2022/11/15 07:15:41;;;;;;;0.70;0.70;;;;;;;10.17;100.00;100844.63;5088517;28;20201;-73
2022/11/15 07:18:08;;;;;;;0.60;0.60;;;;;;;10.00;100.00;100846.72;5088550;28;20640;-72
2022/11/15 07:20:35;;;;;;;0.70;0.70;;;;;;;9.97;100.00;100844.03;5053262;28;20771;-74
2022/11/15 07:23:03;;;;;;;0.60;0.60;;;;;;;9.77;100.00;100803.72;5088570;28;20669;-73
2022/11/15 07:25:30;;;;;;;0.80;0.80;;;;;;;9.93;100.00;100822.34;5088311;28;20225;-73
2022/11/15 07:27:58;;;;;;;0.50;0.50;;;;;;;10.13;100.00;100833.25;5088329;28;20210;-73
2022/11/15 07:30:25;;;;;;;0.80;0.80;;;;;;;9.87;100.00;100835.13;5088290;28;20194;-73
2022/11/15 07:32:54;;;;;;;0.70;0.70;;;;;;;9.84;100.00;100834.16;5088276;28;20198;-73
2022/11/15 07:35:21;;;;;;;1.00;1.00;;;;;;;9.67;100.00;100809.44;5088097;28;20199;-73
2022/11/15 07:37:54;;;;;;;0.70;0.70;;;;;;;9.82;100.00;100828.91;5088107;28;20198;-74
2022/11/15 07:40:23;;;;;;;0.90;0.90;;;;;;;9.81;100.00;100828.88;5088043;28;20289;-73
2022/11/15 07:42:56;;;;;;;0.60;0.60;;;;;;;9.74;100.00;100824.31;5088284;28;20625;-73
2022/11/15 07:45:26;;;;;;;0.80;0.80;;;;;;;9.78;100.00;100821.00;5087974;28;20674;-72
2022/11/15 07:47:53;;;;;;;0.70;0.70;;;;;;;9.83;100.00;100820.31;5088031;28;20234;-73
2022/11/15 07:50:20;;;;;;;0.60;0.60;;;;;;;9.81;100.00;100808.16;5087961;28;20202;-73
2022/11/15 07:52:47;;;;;;;0.50;0.50;;;;;;;9.61;100.00;100804.09;5087941;28;20658;-73
2022/11/15 07:55:14;;;;;;;0.70;0.70;;;;;;;9.11;100.00;100689.56;5088096;28;20194;-74
2022/11/15 07:57:42;;;;;;;0.70;0.70;;;;;;;9.96;100.00;100819.84;5087808;28;20591;-73
2022/11/15 08:00:10;;;;;;;0.80;0.80;;;;;;;10.12;100.00;100825.47;5087765;28;20665;-74
2022/11/15 08:02:37;;;;;;;0.60;0.60;;;;;;;10.29;100.00;100830.31;5087561;28;20673;-73
2022/11/15 08:05:05;;;;;;;3.50;1.20;;;;;;;10.05;100.00;100824.41;5087499;28;20720;-73
2022/11/15 08:07:32;;;;;;;1.00;1.00;;;;;;;9.89;100.00;100801.47;5087722;28;20194;-73
2022/11/15 08:10:00;;;;;;;1.37;1.27;;;;;;;10.20;100.00;100827.44;5087636;28;20210;-73
2022/11/15 08:12:28;;;;;;;0.60;0.60;;;;;;;10.08;100.00;100824.50;5087465;28;20203;-74
2022/11/15 08:14:56;;;;;;;2.00;1.47;;;;;;;9.85;100.00;100820.34;5086828;28;20281;-74
2022/11/15 08:17:23;;;;;;;1.07;1.07;;;;;;;9.76;100.00;100822.69;5073396;28;20739;-74
2022/11/15 08:19:50;;;;;;;0.90;0.90;;;;;;;9.53;100.00;100787.44;5074168;28;20198;-73
2022/11/15 08:22:17;;;;;;;0.50;0.50;;;;;;;9.99;100.00;100818.19;5073770;28;20195;-74
2022/11/15 08:24:45;;;;;;;0.70;0.70;;;;;;;10.00;100.00;100802.66;5073592;28;20238;-73
2022/11/15 08:27:15;;;;;;;0.80;0.80;;;;;;;10.01;100.00;100795.78;5038522;28;20690;-74
2022/11/15 08:29:43;;;;;;;0.70;0.70;;;;;;;9.87;100.00;100808.34;5074067;28;20241;-73
2022/11/15 08:32:12;;;;;;;0.80;0.80;;;;;;;9.92;100.00;100806.75;5074037;28;20194;-74
2022/11/15 08:34:39;;;;;;;0.60;0.60;;;;;;;9.91;100.00;100794.66;5073758;28;20619;-73
2022/11/15 08:37:06;;;;;;;9.83;4.60;;;;;;;9.93;100.00;100809.38;5073564;28;20210;-73
2022/11/15 08:39:33;;;;;;;0.70;0.70;;;;;;;10.11;100.00;100811.63;5073519;28;20202;-73
2022/11/15 08:42:00;;;;;;;1.17;1.17;;;;;;;10.18;100.00;100795.44;5073433;28;20618;-73
2022/11/15 08:44:27;;;;;;;0.60;0.60;;;;;;;10.35;100.00;100804.56;5073286;28;20227;-73
2022/11/15 08:46:54;;;;;;;1.37;1.37;;;;;;;10.10;100.00;100816.75;5073699;28;20195;-73
2022/11/15 08:49:22;;;;;;;0.70;0.70;;;;;;;10.23;100.00;100811.13;5073370;28;20735;-73
2022/11/15 08:51:49;;;;;;;1.83;1.73;;;;;;;10.15;100.00;100804.84;5073338;28;20199;-73
2022/11/15 08:54:16;;;;;;;1.47;1.20;;;;;;;9.99;100.00;100803.50;5073162;28;20203;-73
2022/11/15 08:56:42;;;;;;;0.80;0.80;;;;;;;9.76;100.00;100794.19;5073563;28;20198;-73
2022/11/15 08:59:09;;;;;;;0.90;0.90;;;;;;;9.80;100.00;100796.03;5073299;28;20202;-73
2022/11/15 09:01:36;;;;;;;0.60;0.60;;;;;;;9.49;100.00;100695.00;5054485;28;20206;-72
2022/11/15 09:04:03;;;;;;;0.70;0.70;;;;;;;10.19;100.00;100783.38;5073052;28;20230;-73
2022/11/15 09:06:32;;;;;;;1.10;1.10;;;;;;;10.24;100.00;100781.78;5038314;28;20209;-72
2022/11/15 09:08:58;;;;;;;0.70;0.70;;;;;;;9.94;100.00;100733.44;5073181;28;20199;-73
2022/11/15 09:11:26;;;;;;;0.80;0.80;;;;;;;10.17;100.00;100760.00;5054412;28;20207;-73
2022/11/15 09:13:53;;;;;;;0.70;0.70;;;;;;;10.19;100.00;100773.91;5037936;28;20702;-72
2022/11/15 09:16:20;;;;;;;0.70;0.70;;;;;;;10.32;100.00;100747.47;5072751;28;20211;-73
2022/11/15 09:18:47;;;;;;;0.70;0.70;;;;;;;10.29;100.00;100751.69;5073028;28;20692;-74
2022/11/15 09:21:13;;;;;;;0.83;0.83;;;;;;;10.42;100.00;100766.72;5072868;28;20199;-73
2022/11/15 09:23:42;;;;;;;0.60;0.60;;;;;;;10.42;100.00;100765.00;5072791;28;20214;-74
2022/11/15 09:26:08;;;;;;;0.60;0.60;;;;;;;10.55;100.00;100765.34;5072586;28;20226;-74
2022/11/15 09:28:36;;;;;;;0.90;0.90;;;;;;;10.36;100.00;100764.84;5071782;28;20213;-73
2022/11/15 09:31:05;;;;;;;1.27;1.27;;;;;;;10.44;100.00;100763.34;5072638;28;20229;-73
2022/11/15 09:33:32;;;;;;;0.70;0.70;;;;;;;10.57;100.00;100742.91;5072495;28;20195;-73
2022/11/15 09:36:02;;;;;;;1.20;1.20;;;;;;;10.57;100.00;100766.25;5072600;28;20210;-73
2022/11/15 09:38:29;;;;;;;0.80;0.80;;;;;;;10.57;100.00;100766.25;5030703;28;20699;-73
2022/11/15 09:41:20;;;;;;;0.50;0.50;;;;;;;10.94;100.00;100717.03;5033932;28;20283;-72
2022/11/15 09:43:55;;;;;;;2.60;2.40;;;;;;;10.91;100.00;100750.72;5027538;28;20206;-73
2022/11/15 09:46:29;;;;;;;0.50;0.50;;;;;;;10.91;100.00;100751.56;5039614;28;20641;-73
2022/11/15 09:48:57;;;;;;;0.60;0.60;;;;;;;11.04;100.00;100751.84;5034429;28;20278;-73
2022/11/15 09:51:29;;;;;;;0.80;0.80;;;;;;;11.06;100.00;100732.88;5051989;28;20286;-74
2022/11/15 09:54:12;;;;;;;0.60;0.60;;;;;;;11.08;100.00;100723.44;5038477;28;20256;-73
2022/11/15 09:56:43;;;;;;;0.60;0.60;;;;;;;11.26;100.00;100754.13;5052080;28;20294;-72
2022/11/15 09:59:31;;;;;;;1.13;1.13;;;;;;;11.43;100.00;100725.09;5052019;28;20204;-78
2022/11/15 10:02:16;;;;;;;0.70;0.70;;;;;;;11.74;100.00;100731.84;4970928;28;20293;-73
2022/11/15 10:04:43;;;;;;;0.73;0.73;;;;;;;11.62;100.00;100738.47;4922805;28;20230;-73
2022/11/15 10:07:19;;;;;;;0.80;0.80;;;;;;;11.70;100.00;100740.38;4970896;28;20214;-73
2022/11/15 10:09:52;;;;;;;0.70;0.70;;;;;;;11.73;100.00;100731.81;4971063;28;20657;-72
2022/11/15 10:12:20;;;;;;;2.35;2.25;;;;;;;11.35;100.00;100713.66;4973634;28;20197;-74
2022/11/15 10:14:49;;;;;;;0.60;0.60;;;;;;;11.41;100.00;100718.97;4981454;28;20217;-73
2022/11/15 10:17:39;;;;;;;0.70;0.70;;;;;;;11.20;100.00;100718.50;4970605;28;20205;-74
2022/11/15 10:20:17;;;;;;;0.73;0.73;;;;;;;10.89;100.00;100711.75;4938543;28;20213;-73
2022/11/15 10:22:48;;;;;;;0.60;0.60;;;;;;;11.15;100.00;100704.56;4970632;28;20753;-72
2022/11/15 10:25:20;;;;;;;0.70;0.70;;;;;;;11.13;100.00;100701.03;4938375;28;20316;-72
2022/11/15 10:27:54;;;;;;;0.70;0.70;;;;;;;11.23;100.00;100707.34;4970665;28;20202;-73
2022/11/15 10:30:21;;;;;;;0.70;0.70;;;;;;;10.97;100.00;100701.53;4970637;28;20198;-72
2022/11/15 10:32:50;;;;;;;0.70;0.70;;;;;;;10.71;100.00;100698.31;4970521;28;20194;-72
2022/11/15 10:35:22;;;;;;;0.60;0.60;;;;;;;10.79;100.00;100695.91;4970727;28;20209;-72
2022/11/15 10:37:50;;;;;;;1.20;1.20;;;;;;;10.80;100.00;100695.09;4970431;28;20692;-72
2022/11/15 10:40:20;;;;;;;0.60;0.60;;;;;;;11.00;100.00;100688.63;5045228;28;20203;-73
2022/11/15 10:42:49;;;;;;;0.57;0.57;;;;;;;10.92;100.00;100653.84;5051350;28;20277;-73
2022/11/15 10:45:28;;;;;;;0.73;0.73;;;;;;;11.00;100.00;100667.88;5051437;28;20636;-73
2022/11/15 10:48:23;;;;;;;0.70;0.70;;;;;;;11.04;100.00;100680.09;5051348;28;20330;-74
2022/11/15 10:50:51;;;;;;;0.70;0.70;;;;;;;11.16;100.00;100685.56;5049357;28;20629;-73
2022/11/15 10:53:23;;;;;;;0.50;0.50;;;;;;;11.14;100.00;100671.66;5051153;28;20294;-72
2022/11/15 10:55:52;;;;;;;0.63;0.63;;;;;;;11.24;100.00;100675.31;5050905;28;20214;-73
2022/11/15 10:58:33;;;;;;;0.70;0.70;;;;;;;11.27;100.00;100681.44;5051224;28;20199;-73
2022/11/15 11:01:14;;;;;;;0.73;0.73;;;;;;;11.30;100.00;100678.94;5050996;28;20214;-73
2022/11/15 11:03:42;;;;;;;0.60;0.60;;;;;;;10.86;100.00;100638.16;5051293;28;20265;-72
2022/11/15 11:06:12;;;;;;;0.70;0.70;;;;;;;11.04;100.00;100663.63;5051085;28;20219;-72
2022/11/15 11:08:40;;;;;;;1.13;0.97;;;;;;;10.58;100.00;100599.47;5050944;28;20253;-71
2022/11/15 11:11:08;;;;;;;0.63;0.63;;;;;;;10.64;100.00;100565.88;5015913;28;20620;-72
2022/11/15 11:13:38;;;;;;;0.93;0.93;;;;;;;11.28;100.00;100646.88;5050905;28;20322;-74
2022/11/15 11:16:31;;;;;;;0.60;0.60;;;;;;;11.11;100.00;100626.59;5050812;28;20207;-70
2022/11/15 11:19:20;;;;;;;0.73;0.73;;;;;;;11.48;100.00;100641.22;4989372;28;20276;-71
2022/11/15 11:21:52;;;;;;;0.93;0.93;;;;;;;11.53;100.00;100631.78;4989202;28;20232;-72
2022/11/15 11:24:26;;;;;;;0.80;0.80;;;;;;;11.16;100.00;100623.28;4989363;28;20217;-72
2022/11/15 11:27:09;;;;;;;3.70;2.30;;;;;;;11.39;100.00;100627.22;4989450;28;20637;-71
2022/11/15 11:29:52;;;;;;;0.50;0.50;;;;;;;11.41;100.00;100619.47;4989382;28;20194;-71
2022/11/15 11:32:34;;;;;;;0.63;0.63;;;;;;;11.41;100.00;100614.28;4989498;28;20206;-71
2022/11/15 11:35:09;;;;;;;1.10;1.10;;;;;;;11.24;100.00;100597.44;4989577;28;20281;-73
2022/11/15 11:37:43;;;;;;;1.00;1.00;;;;;;;11.16;100.00;100580.88;4972793;28;20197;-72
2022/11/15 11:40:21;;;;;;;0.60;0.60;;;;;;;11.41;100.00;100606.47;4989372;28;20228;-73
2022/11/15 11:42:59;;;;;;;0.60;0.60;;;;;;;11.04;100.00;100514.00;4958534;28;20691;-72
2022/11/15 11:45:46;;;;;;;0.80;0.80;;;;;;;11.66;100.00;100605.22;4989520;28;20239;-73
2022/11/15 11:48:14;;;;;;;0.70;0.70;;;;;;;11.73;100.00;100607.13;4989429;28;20289;-73
2022/11/15 11:50:45;;;;;;;1.17;1.17;;;;;;;11.57;100.00;100584.25;4989968;28;20599;-73
2022/11/15 11:53:15;;;;;;;0.80;0.80;;;;;;;11.90;100.00;100601.38;4992756;28;20687;-73
2022/11/15 11:55:46;;;;;;;2.50;2.30;;;;;;;11.62;100.00;100593.03;5015422;28;20211;-73
2022/11/15 11:58:18;;;;;;;0.87;0.87;;;;;;;11.83;100.00;100546.69;5054363;28;20207;-75
2022/11/15 12:00:50;;;;;;;0.60;0.60;;;;;;;12.17;100.00;100580.19;5054581;28;20191;-73